To NAV CANADA Home Page Login to a new session Search on AWWS site Feedback and Comments Disclaimer Vers la page française équivalente Tips FAQ What's new on the site To the Forecasts and Observations / NOTAM section To "File a Flight Plan" website Publications and other links Update of the User's profile FIC Telephone Numbers My Weather Data Folder Route Weather Data Regional Weather Data Local Weather Data To the Forecasts and Observations / NOTAM section
Request Generated 06/26/2017 at 22:35:29 UTC . Weather information available at that time is displayed.

METAR/TAF

VANCOUVER INTL/BC    (show WxCam)

METAR CYVR 262200Z 23006KT 30SM FEW040 FEW230 20/14 A2992 RMK CU1CI1
CU TR CI TR CONTRAILS SLP133 DENSITY ALT 600FT=
METAR CYVR 262100Z 25007KT 30SM FEW040 FEW230 19/14 A2992 RMK CU1CI1
CU TR SLP134 DENSITY ALT 500FT=
METAR CYVR 262000Z 23007KT 30SM FEW230 18/13 A2992 RMK CI1 SLP133
DENSITY ALT 400FT=

TAF CYVR 262038Z 2621/2724 23008KT P6SM SKC
BECMG 2622/2624 29012KT
RMK NXT FCST BY 270000Z=
Your time UTC time
Weather data provided by Environment Canada and NAV CANADA